createdAt,value
2023-03-26T00:01:14.319Z,31.70
2023-03-26T00:06:10.244Z,28.92
2023-03-26T00:08:38.634Z,29.73
2023-03-26T00:11:07.101Z,31.02
2023-03-26T00:13:34.755Z,30.20
2023-03-26T00:16:02.323Z,29.95
2023-03-26T00:18:35.115Z,28.23
2023-03-26T00:21:03.600Z,28.80
2023-03-26T00:23:31.190Z,31.27
2023-03-26T00:26:02.766Z,29.63
2023-03-26T00:28:32.834Z,30.02
2023-03-26T00:31:01.778Z,26.95
2023-03-26T00:33:29.479Z,27.13
2023-03-26T00:35:59.201Z,29.20
2023-03-26T00:38:27.044Z,27.70
2023-03-26T00:40:54.674Z,28.38
2023-03-26T00:43:22.591Z,29.30
2023-03-26T00:45:51.737Z,26.38
2023-03-26T00:48:19.484Z,26.83
2023-03-26T00:50:47.655Z,24.00
2023-03-26T00:53:15.490Z,22.17
2023-03-26T00:55:43.244Z,21.75
2023-03-26T00:58:10.747Z,26.30
2023-03-26T01:00:41.239Z,27.27
2023-03-26T01:03:08.808Z,34.47
2023-03-26T01:05:36.305Z,35.65
2023-03-26T01:08:22.892Z,35.20
2023-03-26T01:10:53.344Z,33.55
2023-03-26T01:13:22.050Z,31.20
2023-03-26T01:15:51.354Z,27.90
2023-03-26T01:18:22.432Z,28.08
2023-03-26T01:20:50.617Z,23.52
2023-03-26T01:23:22.437Z,23.88
2023-03-26T01:25:52.103Z,24.65
2023-03-26T01:28:19.706Z,26.80
2023-03-26T01:30:49.729Z,27.65
2023-03-26T01:33:30.013Z,29.98
2023-03-26T01:36:09.669Z,29.98
2023-03-26T01:38:40.350Z,25.30
2023-03-26T01:41:27.093Z,26.92
2023-03-26T01:43:58.182Z,21.98
2023-03-26T01:46:25.910Z,21.23
2023-03-26T01:48:53.424Z,19.08
2023-03-26T01:51:31.033Z,18.70
2023-03-26T01:53:58.756Z,20.60
2023-03-26T01:56:32.275Z,23.73
2023-03-26T01:59:14.703Z,23.05
2023-03-26T02:01:55.000Z,22.55
2023-03-26T02:04:25.644Z,24.25
2023-03-26T02:07:06.005Z,24.33
2023-03-26T02:09:34.504Z,24.33
2023-03-26T02:12:03.719Z,24.65
2023-03-26T02:14:32.274Z,25.35
2023-03-26T02:17:00.928Z,28.67
2023-03-26T02:19:28.317Z,26.40
2023-03-26T02:21:59.908Z,27.85
2023-03-26T02:24:27.574Z,26.98
2023-03-26T02:26:54.993Z,25.90
2023-03-26T02:29:22.427Z,27.17
2023-03-26T02:31:50.135Z,25.95
2023-03-26T02:34:17.735Z,25.92
2023-03-26T02:36:45.184Z,24.33
2023-03-26T02:39:14.446Z,22.33
2023-03-26T02:41:41.918Z,19.08
2023-03-26T02:44:09.419Z,20.80
2023-03-26T02:46:36.858Z,20.50
2023-03-26T02:49:04.321Z,20.17
2023-03-26T02:51:34.998Z,20.75
2023-03-26T02:54:02.826Z,22.02
2023-03-26T02:56:30.461Z,22.40
2023-03-26T02:58:57.850Z,25.05
2023-03-26T03:01:25.314Z,25.85
2023-03-26T03:03:52.801Z,26.27
2023-03-26T03:06:20.258Z,27.70
2023-03-26T03:08:47.746Z,27.38
2023-03-26T03:11:22.921Z,24.70
2023-03-26T03:13:50.384Z,26.05
2023-03-26T03:16:17.963Z,25.20
2023-03-26T03:18:45.517Z,25.90
2023-03-26T03:21:13.017Z,26.13
2023-03-26T03:23:40.592Z,26.75
2023-03-26T03:26:12.711Z,27.23
2023-03-26T03:28:40.355Z,25.70
2023-03-26T03:31:09.317Z,29.30
2023-03-26T03:33:36.776Z,29.52
2023-03-26T03:36:19.653Z,30.98
2023-03-26T03:38:47.710Z,32.15
2023-03-26T03:41:15.213Z,31.75
2023-03-26T03:43:42.661Z,29.73
2023-03-26T03:46:10.141Z,31.25
2023-03-26T03:48:38.453Z,30.58
2023-03-26T03:51:06.559Z,27.98
2023-03-26T03:53:37.352Z,26.80
2023-03-26T03:56:10.504Z,27.20
2023-03-26T03:58:38.129Z,26.20
2023-03-26T04:01:05.678Z,24.58
2023-03-26T04:03:39.247Z,23.55
2023-03-26T04:06:07.497Z,21.92
2023-03-26T04:08:35.008Z,22.92
2023-03-26T04:11:02.508Z,22.27
2023-03-26T04:13:29.933Z,22.55
2023-03-26T04:15:57.775Z,19.75
2023-03-26T04:18:26.497Z,20.50
2023-03-26T04:20:55.854Z,20.48
2023-03-26T04:23:23.464Z,20.40
2023-03-26T04:25:54.388Z,18.25
2023-03-26T04:28:26.648Z,17.42
2023-03-26T04:30:54.814Z,16.63
2023-03-26T04:33:22.374Z,17.63
2023-03-26T04:35:49.929Z,17.70
2023-03-26T04:38:18.417Z,18.45
2023-03-26T04:40:48.886Z,18.80
2023-03-26T04:43:18.087Z,18.63
2023-03-26T04:45:48.874Z,19.83
2023-03-26T04:48:16.313Z,19.70
2023-03-26T04:50:44.061Z,19.60
2023-03-26T04:53:15.590Z,16.95
2023-03-26T04:55:44.835Z,17.10
2023-03-26T04:58:14.109Z,19.05
2023-03-26T05:00:42.176Z,21.33
2023-03-26T05:03:12.910Z,18.92
2023-03-26T05:05:40.790Z,15.07
2023-03-26T05:08:08.267Z,16.00
2023-03-26T05:10:35.764Z,15.65
2023-03-26T05:13:03.264Z,15.55
2023-03-26T05:15:30.742Z,14.80
2023-03-26T05:17:59.377Z,15.43
2023-03-26T05:20:27.427Z,16.67
2023-03-26T05:22:54.982Z,16.42
2023-03-26T05:25:22.443Z,16.95
2023-03-26T05:27:49.864Z,16.23
2023-03-26T05:30:18.459Z,14.40
2023-03-26T05:32:46.275Z,14.90
2023-03-26T05:35:15.521Z,15.23
2023-03-26T05:37:45.563Z,16.25
2023-03-26T05:40:14.912Z,15.57
2023-03-26T05:42:42.376Z,15.52
2023-03-26T05:45:10.443Z,15.88
2023-03-26T05:47:38.097Z,15.43
2023-03-26T05:50:06.420Z,14.15
2023-03-26T05:52:33.839Z,15.45
2023-03-26T05:55:01.489Z,17.67
2023-03-26T05:57:32.977Z,17.88
2023-03-26T06:00:00.612Z,18.02
2023-03-26T06:02:29.626Z,18.85
2023-03-26T06:07:39.167Z,18.58
2023-03-26T06:10:06.915Z,17.77
2023-03-26T06:12:34.482Z,16.13
2023-03-26T06:15:03.703Z,17.63
2023-03-26T06:17:31.257Z,16.25
2023-03-26T06:19:58.811Z,19.60
2023-03-26T06:22:26.467Z,17.15
2023-03-26T06:25:01.776Z,14.80
2023-03-26T06:27:54.459Z,15.30
2023-03-26T06:30:22.011Z,12.52
2023-03-26T06:32:49.651Z,12.27
2023-03-26T06:35:17.317Z,12.32
2023-03-26T06:37:45.055Z,13.05
2023-03-26T06:40:16.001Z,13.07
2023-03-26T06:43:09.362Z,13.95
2023-03-26T06:45:31.342Z,15.95
2023-03-26T06:47:58.939Z,16.00
2023-03-26T06:50:26.631Z,16.42
2023-03-26T06:52:55.009Z,16.05
2023-03-26T06:55:22.656Z,15.98
2023-03-26T06:57:50.834Z,14.75
2023-03-26T07:00:18.425Z,15.82
2023-03-26T07:02:46.138Z,16.08
2023-03-26T07:05:22.879Z,17.38
2023-03-26T07:07:50.640Z,16.15
2023-03-26T07:10:18.196Z,16.33
2023-03-26T07:12:46.243Z,16.63
2023-03-26T07:15:18.459Z,15.38
2023-03-26T07:17:46.285Z,13.70
2023-03-26T07:20:14.007Z,12.93
2023-03-26T07:22:51.769Z,12.00
2023-03-26T07:25:19.708Z,13.43
2023-03-26T07:27:50.496Z,12.52
2023-03-26T07:30:41.758Z,13.65
2023-03-26T07:33:17.020Z,17.77
2023-03-26T07:35:59.692Z,13.77
2023-03-26T07:38:45.636Z,11.27
2023-03-26T07:41:23.812Z,13.30
2023-03-26T07:44:03.775Z,13.95
2023-03-26T07:46:32.234Z,17.08
2023-03-26T07:49:01.930Z,15.82
2023-03-26T07:51:29.809Z,12.98
2023-03-26T07:54:00.689Z,14.02
2023-03-26T07:56:35.251Z,12.85
2023-03-26T07:59:16.312Z,12.93
2023-03-26T08:01:53.446Z,13.00
2023-03-26T08:04:23.289Z,14.15
2023-03-26T08:06:59.865Z,13.38
2023-03-26T08:09:48.274Z,13.70
2023-03-26T08:12:23.187Z,14.02
2023-03-26T08:14:56.552Z,14.38
2023-03-26T08:17:24.080Z,12.27
2023-03-26T08:19:58.530Z,12.30
2023-03-26T08:22:29.176Z,11.18
2023-03-26T08:25:17.796Z,10.63
2023-03-26T08:27:54.705Z,11.00
2023-03-26T08:30:23.369Z,11.93
2023-03-26T08:32:54.559Z,9.40
2023-03-26T08:35:22.087Z,10.32
2023-03-26T08:37:55.021Z,11.50
2023-03-26T08:40:49.220Z,12.55
2023-03-26T08:43:16.717Z,14.80
2023-03-26T08:46:00.390Z,15.88
2023-03-26T08:48:42.556Z,18.75
2023-03-26T08:51:19.347Z,23.05
2023-03-26T08:53:51.291Z,20.90
2023-03-26T08:56:27.738Z,15.15
2023-03-26T08:59:11.921Z,9.25
2023-03-26T09:01:58.252Z,8.20
2023-03-26T09:04:37.071Z,8.27
2023-03-26T09:07:10.438Z,9.65
2023-03-26T09:09:44.145Z,8.65
2023-03-26T09:12:30.567Z,7.47
2023-03-26T09:15:10.458Z,8.02
2023-03-26T09:17:40.857Z,5.75
2023-03-26T09:20:21.018Z,6.20
2023-03-26T09:22:48.736Z,5.90
2023-03-26T09:25:42.022Z,5.30
2023-03-26T09:28:32.816Z,5.80
2023-03-26T09:31:01.401Z,6.28
2023-03-26T09:33:52.409Z,4.93
2023-03-26T10:13:28.584Z,2.10
2023-03-26T10:16:10.640Z,1.48
2023-03-26T10:18:38.161Z,1.13
2023-03-26T10:21:12.686Z,1.40
2023-03-26T10:23:53.220Z,1.10
2023-03-26T10:26:38.808Z,1.70
2023-03-26T10:29:06.360Z,1.92
2023-03-26T10:31:36.757Z,1.20
2023-03-26T10:34:28.998Z,1.05
2023-03-26T10:37:17.160Z,0.77
2023-03-26T10:42:27.355Z,1.45
2023-03-26T10:45:00.638Z,1.92
2023-03-26T10:47:45.999Z,1.40
2023-03-26T10:50:22.830Z,1.00
2023-03-26T10:53:06.035Z,0.90
2023-03-26T10:55:40.860Z,1.40
2023-03-26T10:58:49.066Z,1.40
2023-03-26T11:01:29.463Z,1.38
2023-03-26T11:03:59.614Z,1.63
2023-03-26T11:06:43.649Z,1.20
2023-03-26T11:09:33.274Z,1.48
2023-03-26T11:12:27.194Z,1.40
2023-03-26T11:14:58.489Z,1.58
2023-03-26T11:17:40.595Z,1.25
2023-03-26T11:20:09.288Z,1.33
2023-03-26T11:22:40.303Z,1.27
2023-03-26T11:25:24.984Z,1.65
2023-03-26T11:28:04.795Z,1.10
2023-03-26T11:30:35.395Z,0.82
2023-03-26T11:33:03.619Z,1.20
2023-03-26T11:38:13.975Z,1.50
2023-03-26T11:40:42.721Z,0.80
2023-03-26T11:43:13.638Z,1.30
2023-03-26T11:45:42.539Z,1.20
2023-03-26T11:48:21.849Z,1.55
2023-03-26T11:50:51.554Z,1.20
2023-03-26T11:53:30.005Z,1.35
2023-03-26T11:56:08.632Z,1.65
2023-03-26T11:58:41.190Z,1.42
2023-03-26T12:01:18.085Z,1.38
2023-03-26T12:03:59.198Z,1.30
2023-03-26T12:06:31.838Z,1.35
2023-03-26T12:08:59.423Z,1.48
2023-03-26T12:14:03.216Z,1.60
2023-03-26T12:16:33.799Z,1.23
2023-03-26T12:19:01.334Z,1.20
2023-03-26T12:24:15.232Z,1.40
2023-03-26T12:26:48.811Z,1.23
2023-03-26T12:29:17.549Z,2.00
2023-03-26T12:32:03.946Z,1.60
2023-03-26T12:34:36.893Z,1.20
2023-03-26T12:37:05.320Z,1.50
2023-03-26T12:40:10.275Z,1.60
2023-03-26T12:44:46.607Z,1.80
2023-03-26T12:48:57.593Z,1.80
2023-03-26T12:51:38.502Z,1.48
2023-03-26T12:54:13.531Z,1.40
2023-03-26T12:57:11.948Z,1.65
2023-03-26T12:59:47.155Z,1.50
2023-03-26T13:02:33.009Z,1.67
2023-03-26T13:05:06.762Z,1.33
2023-03-26T13:07:36.440Z,1.15
2023-03-26T13:10:25.416Z,1.80
2023-03-26T13:13:05.838Z,1.80
2023-03-26T13:15:45.988Z,1.73
2023-03-26T13:18:39.848Z,1.50
2023-03-26T13:21:19.086Z,1.70
2023-03-26T13:24:05.103Z,1.70
2023-03-26T13:26:51.033Z,1.70
2023-03-26T13:30:06.344Z,1.95
2023-03-26T13:32:38.116Z,2.00
2023-03-26T13:35:27.744Z,2.20
2023-03-26T13:38:01.860Z,2.33
2023-03-26T13:40:51.194Z,1.92
2023-03-26T13:43:39.309Z,1.65
2023-03-26T13:47:03.795Z,1.73
2023-03-26T13:49:50.688Z,2.13
2023-03-26T13:52:27.673Z,1.83
2023-03-26T13:54:59.317Z,1.90
2023-03-26T14:26:50.757Z,2.15
2023-03-26T14:30:01.305Z,3.03
2023-03-26T14:32:54.651Z,3.08
2023-03-26T14:35:48.539Z,2.67
2023-03-26T14:38:40.460Z,2.40
2023-03-26T14:41:27.000Z,2.17
2023-03-26T14:44:13.417Z,3.25
2023-03-26T14:47:02.058Z,2.42
2023-03-26T14:49:52.048Z,2.78
2023-03-26T14:52:27.462Z,2.40
2023-03-26T14:55:04.919Z,2.88
2023-03-26T14:57:49.582Z,2.78
2023-03-26T15:00:32.333Z,2.72
2023-03-26T15:03:15.209Z,2.50
2023-03-26T15:05:49.757Z,2.63
2023-03-26T15:08:34.085Z,2.95
2023-03-26T15:11:13.699Z,1.98
2023-03-26T15:14:02.781Z,2.30
2023-03-26T15:16:39.828Z,2.50
2023-03-26T15:19:26.102Z,2.30
2023-03-26T15:21:59.135Z,2.72
2023-03-26T15:24:47.614Z,2.45
2023-03-26T15:27:22.046Z,3.38
2023-03-26T15:34:04.741Z,3.97
2023-03-26T15:37:07.474Z,3.50
2023-03-26T15:40:01.047Z,3.53
2023-03-26T15:43:01.169Z,4.22
2023-03-26T15:45:55.550Z,4.20
2023-03-26T15:48:49.876Z,4.55
2023-03-26T15:51:17.329Z,4.63
2023-03-26T15:53:56.012Z,4.55
2023-03-26T15:56:26.152Z,5.57
2023-03-26T15:58:59.755Z,4.97
2023-03-26T16:01:51.227Z,5.35
2023-03-26T16:04:26.761Z,4.90
2023-03-26T16:07:16.144Z,6.30
2023-03-26T16:10:04.663Z,5.80
2023-03-26T16:12:38.818Z,6.53
2023-03-26T16:15:22.451Z,6.75
2023-03-26T16:18:09.553Z,5.82
2023-03-26T16:26:21.401Z,11.95
2023-03-26T16:28:49.266Z,10.32
2023-03-26T16:31:37.320Z,10.65
2023-03-26T16:34:13.531Z,8.20
2023-03-26T16:36:44.185Z,9.80
2023-03-26T16:39:22.081Z,9.88
2023-03-26T16:41:52.393Z,8.00
2023-03-26T16:44:26.101Z,7.63
2023-03-26T16:47:12.188Z,5.53
2023-03-26T16:50:08.418Z,7.30
2023-03-26T16:56:10.843Z,9.00
2023-03-26T17:02:26.664Z,10.50
2023-03-26T17:04:56.231Z,12.82
2023-03-26T17:07:42.527Z,10.40
2023-03-26T17:10:44.541Z,7.70
2023-03-26T17:13:25.181Z,7.40
2023-03-26T17:16:03.050Z,8.57
2023-03-26T17:18:49.408Z,10.65
2023-03-26T17:21:18.073Z,16.80
2023-03-26T17:23:55.482Z,12.38
2023-03-26T17:26:35.372Z,11.80
2023-03-26T17:29:16.973Z,9.20
2023-03-26T17:34:53.386Z,9.63
2023-03-26T17:37:21.121Z,10.98
2023-03-26T17:40:12.733Z,11.23
2023-03-26T17:42:40.545Z,13.20
2023-03-26T17:45:08.290Z,11.40
2023-03-26T17:47:45.450Z,13.65
2023-03-26T17:50:22.982Z,15.27
2023-03-26T17:52:52.957Z,15.00
2023-03-26T17:55:52.706Z,15.38
2023-03-26T17:58:23.024Z,15.70
2023-03-26T18:00:51.511Z,15.45
2023-03-26T18:03:19.301Z,14.52
2023-03-26T18:05:47.154Z,14.40
2023-03-26T18:08:37.760Z,14.93
2023-03-26T18:11:27.076Z,17.95
2023-03-26T18:13:57.926Z,17.52
2023-03-26T18:16:37.586Z,15.75
2023-03-26T18:19:22.704Z,12.18
2023-03-26T18:22:02.774Z,12.60
2023-03-26T18:24:42.786Z,11.60
2023-03-26T18:27:16.917Z,10.65
2023-03-26T18:29:45.038Z,12.02
2023-03-26T18:32:17.006Z,16.85
2023-03-26T18:34:50.183Z,21.25
2023-03-26T18:37:19.684Z,17.92
2023-03-26T18:39:59.018Z,16.83
2023-03-26T18:42:27.264Z,16.73
2023-03-26T18:45:00.286Z,16.80
2023-03-26T18:47:37.343Z,15.35
2023-03-26T18:50:05.420Z,15.57
2023-03-26T18:52:40.591Z,17.08
2023-03-26T18:55:08.374Z,14.52
2023-03-26T18:57:36.982Z,9.55
2023-03-26T19:00:17.277Z,8.38
2023-03-26T19:02:48.025Z,9.02
2023-03-26T19:05:19.078Z,9.75
2023-03-26T19:07:50.308Z,11.73
2023-03-26T19:10:36.638Z,13.15
2023-03-26T19:13:13.126Z,18.15
2023-03-26T19:15:40.968Z,17.33
2023-03-26T19:18:16.993Z,16.77
2023-03-26T19:20:55.029Z,17.15
2023-03-26T19:23:35.713Z,24.73
2023-03-26T19:26:04.386Z,26.90
2023-03-26T19:28:32.997Z,30.50
2023-03-26T19:31:25.371Z,31.90
2023-03-26T19:34:29.744Z,35.30
2023-03-26T19:37:03.691Z,38.65
2023-03-26T19:40:09.280Z,36.75
2023-03-26T19:42:43.652Z,37.58
2023-03-26T19:45:16.805Z,31.00
2023-03-26T19:47:48.431Z,27.90
2023-03-26T19:50:19.805Z,32.55
2023-03-26T19:52:47.269Z,30.13
2023-03-26T19:55:24.217Z,32.88
2023-03-26T19:57:54.897Z,35.22
2023-03-26T20:00:23.254Z,39.33
2023-03-26T20:02:50.823Z,39.43
2023-03-26T20:05:36.744Z,47.28
2023-03-26T20:08:11.102Z,41.92
2023-03-26T20:10:44.584Z,49.70
2023-03-26T20:13:16.173Z,46.85
2023-03-26T20:15:47.047Z,51.58
2023-03-26T20:18:28.751Z,61.35
2023-03-26T20:20:56.603Z,51.28
2023-03-26T20:23:25.685Z,56.72
2023-03-26T20:25:55.066Z,61.22
2023-03-26T20:28:25.601Z,64.30
2023-03-26T20:30:54.785Z,62.50
2023-03-26T20:33:29.242Z,68.55
2023-03-26T20:35:57.436Z,69.05
2023-03-26T20:38:39.152Z,75.97
2023-03-26T20:41:08.186Z,83.40
2023-03-26T20:43:36.016Z,81.07
2023-03-26T20:46:12.299Z,85.35
2023-03-26T20:48:42.099Z,84.13
2023-03-26T20:51:28.699Z,87.50
2023-03-26T20:53:57.084Z,79.55
2023-03-26T20:56:24.732Z,88.07
2023-03-26T20:59:10.451Z,86.15
2023-03-26T21:01:39.458Z,86.22
2023-03-26T21:04:07.797Z,81.18
2023-03-26T21:06:36.520Z,74.93
2023-03-26T21:09:04.218Z,78.35
2023-03-26T21:11:48.393Z,58.22
2023-03-26T21:14:24.061Z,69.60
2023-03-26T21:16:52.725Z,75.40
2023-03-26T21:19:20.834Z,74.50
2023-03-26T21:21:51.050Z,63.00
2023-03-26T21:24:18.732Z,56.65
2023-03-26T21:27:06.787Z,58.78
2023-03-26T21:29:34.587Z,64.18
2023-03-26T21:32:02.101Z,63.97
2023-03-26T21:34:33.529Z,63.08
2023-03-26T21:37:03.008Z,60.60
2023-03-26T21:39:30.794Z,58.72
2023-03-26T21:42:05.205Z,56.78
2023-03-26T21:44:34.000Z,47.78
2023-03-26T21:47:01.695Z,45.63
2023-03-26T21:49:29.810Z,45.08
2023-03-26T21:51:57.424Z,42.78
2023-03-26T21:54:28.971Z,45.65
2023-03-26T21:57:18.803Z,44.83
2023-03-26T21:59:56.488Z,50.72
2023-03-26T22:02:33.351Z,45.65
2023-03-26T22:05:03.953Z,47.85
2023-03-26T22:07:32.045Z,41.38
2023-03-26T22:09:59.842Z,42.90
2023-03-26T22:12:30.411Z,40.67
2023-03-26T22:14:58.546Z,38.95
2023-03-26T22:17:26.257Z,39.13
2023-03-26T22:19:53.764Z,41.15
2023-03-26T22:22:22.338Z,38.88
2023-03-26T22:24:49.806Z,37.42
2023-03-26T22:27:18.165Z,38.45
2023-03-26T22:29:46.686Z,39.57
2023-03-26T22:32:14.211Z,36.23
2023-03-26T22:34:45.335Z,39.67
2023-03-26T23:29:33.750Z,37.05
2023-03-26T23:32:01.488Z,32.35
2023-03-26T23:34:29.117Z,34.17
2023-03-26T23:36:58.234Z,28.73
2023-03-26T23:39:26.854Z,28.33
2023-03-26T23:41:54.407Z,25.80
2023-03-26T23:44:21.866Z,23.50
2023-03-26T23:47:14.653Z,24.90
2023-03-26T23:49:51.450Z,26.17
2023-03-26T23:52:30.761Z,25.17
2023-03-26T23:55:11.301Z,27.85
2023-03-26T23:57:39.131Z,25.67
